Zim Chicago — A8SI9 — position and weather

sailwx.info

Track history (hours):
 
Tides and Currents Weather Stations Pressure Air Temp Water Temp Dewpoint Dewpoint Depression Visibility Wind Speed Wind Dir Waves Ship Positions

Zim Chicago

Last reported at 2016-Sep-29 00:13 UTC. Time now 2016-Sep-29 01:42 UTC.
Position S 23°58' W 046°17'.

Length 334 m; draft 11.4 m.

Type: Cargo ship. MMSI: 636014223.

Date/timePositionNaut miles runAvg speedWind from/ knotsBaromVisibWave heightAir tempDewpointWater temp
2016-Sep-29 00:13S 23°58' W 046°17'0 0.0
2016-Sep-28 21:28S 23°58' W 046°17'0 0.0
2016-Sep-28 19:22S 23°58' W 046°17'0 0.0
2016-Sep-28 16:22S 23°58' W 046°17'0 0.0
2016-Sep-28 15:31S 23°58' W 046°17'0 0.0
2016-Sep-28 12:28S 23°58' W 046°17'11 2.9
2016-Sep-28 08:33S 24°09' W 046°21'3 0.7
2016-Sep-28 03:33S 24°09' W 046°18'0 0.0
2016-Sep-28 02:34S 24°09' W 046°18'0 0.0
2016-Sep-28 01:34S 24°09' W 046°18'0 0.0
2016-Sep-27 23:33S 24°09' W 046°18'37 9.2
2016-Sep-27 19:33S 24°37' W 046°43'175 5.0
2016-Sep-26 08:31S 27°13' W 048°11'  
Track history (hours):
 
Tides and Currents Weather Stations Pressure Air Temp Water Temp Dewpoint Dewpoint Depression Visibility Wind Speed Wind Dir Waves Ship Positions

Zim Chicago

Last reported at 2016-Sep-29 00:13 UTC. Time now 2016-Sep-29 01:42 UTC.
Position S 23°58' W 046°17'.

Length 334 m; draft 11.4 m.

Type: Cargo ship. MMSI: 636014223.

Date/timePositionNaut miles runAvg speedWind from/ knotsBaromVisibWave heightAir tempDewpointWater temp
2016-Sep-29 00:13S 23°58' W 046°17'0 0.0
2016-Sep-28 21:28S 23°58' W 046°17'0 0.0
2016-Sep-28 19:22S 23°58' W 046°17'0 0.0
2016-Sep-28 16:22S 23°58' W 046°17'0 0.0
2016-Sep-28 15:31S 23°58' W 046°17'0 0.0
2016-Sep-28 12:28S 23°58' W 046°17'11 2.9
2016-Sep-28 08:33S 24°09' W 046°21'3 0.7
2016-Sep-28 03:33S 24°09' W 046°18'0 0.0
2016-Sep-28 02:34S 24°09' W 046°18'0 0.0
2016-Sep-28 01:34S 24°09' W 046°18'0 0.0
2016-Sep-27 23:33S 24°09' W 046°18'37 9.2
2016-Sep-27 19:33S 24°37' W 046°43'175 5.0
2016-Sep-26 08:31S 27°13' W 048°11'  

Dump ship's entire track history